METAR Data
IDs: Format: Raw Decoded Include TAF

Data at: 1354 UTC 13 Dec 2019

K6B0 131336Z AUTO 21006KT 10SM OVC027 M01/M08 A3040 RMK AO2 T10071076
K6B0 131335Z AUTO 23006KT 10SM OVC027 M01/M08 A3040 RMK AO2 T10081077
K6B0 131316Z AUTO 18005KT 10SM OVC027 M02/M09 A3040 RMK AO2 T10161093
K6B0 131315Z AUTO 18006KT 10SM OVC027 M02/M09 A3040 RMK AO2 T10161094
K6B0 131255Z AUTO 15005KT 10SM OVC027 M01/M10 A3041 RMK AO2 T10151101
K6B0 131238Z AUTO 18006KT 10SM OVC027 M02/M11 A3042 RMK AO2 T10161108
K6B0 131215Z AUTO 20007KT 10SM OVC027 M01/M12 A3041 RMK AO2 T10151120
K6B0 131155Z AUTO 18006KT 10SM BKN027 M01/M12 A3040 RMK AO2 T10111123 11010 21042
K6B0 131136Z AUTO 17009KT 10SM BKN025 M01/M13 A3040 RMK AO2 T10101127
K6B0 131116Z AUTO 18007KT 10SM BKN025 M01/M13 A3040 RMK AO2 T10111126
K6B0 131058Z AUTO 17009KT 10SM CLR M02/M13 A3040 RMK AO2 T10211134
K6B0 131036Z AUTO 00000KT 10SM CLR M03/M13 A3042 RMK AO2 T10321132
K6B0 131035Z AUTO 00000KT 10SM CLR M03/M13 A3042 RMK AO2 T10321132
K6B0 131016Z AUTO 15004KT 10SM CLR M03/M13 A3042 RMK AO2 T10271135
K6B0 131015Z AUTO 15004KT 10SM CLR M03/M13 A3042 RMK AO2 T10271135
K6B0 130955Z AUTO 15005KT 10SM CLR M03/M13 A3043 RMK AO2 T10321128
K6B0 130938Z AUTO 16004KT 10SM CLR M03/M13 A3043 RMK AO2 T10331130
K6B0 130916Z AUTO 16005KT 10SM CLR M03/M13 A3044 RMK AO2 T10321130
K6B0 130915Z AUTO 16005KT 10SM CLR M03/M13 A3044 RMK AO2 T10331130
K6B0 130856Z AUTO 17003KT 10SM CLR M03/M13 A3044 RMK AO2 T10351130
K6B0 130855Z AUTO 17003KT 10SM CLR M04/M13 A3044 RMK AO2 T10361130
K6B0 130836Z AUTO 17004KT 10SM CLR M04/M13 A3045 RMK AO2 T10401129
K6B0 130818Z AUTO 18006KT 10SM CLR M03/M13 A3045 RMK AO2 T10351131
K6B0 130759Z AUTO 15003KT 10SM CLR M04/M13 A3046 RMK AO2 T10411126
K6B0 130755Z AUTO 00000KT 10SM CLR M04/M13 A3047 RMK AO2 T10401130
K6B0 130736Z AUTO 16004KT 10SM CLR M03/M14 A3047 RMK AO2 T10321137
K6B0 130735Z AUTO 16005KT 10SM CLR M03/M14 A3047 RMK AO2 T10331136
K6B0 130716Z AUTO 17003KT 10SM CLR M03/M14 A3048 RMK AO2 T10271139
K6B0 130656Z AUTO 16006KT 10SM SCT100 M03/M14 A3048 RMK AO2 T10261136
K6B0 130638Z AUTO 18009KT 10SM OVC100 M02/M14 A3048 RMK AO2 T10251137
K6B0 130616Z AUTO 17008KT 10SM OVC100 M03/M13 A3049 RMK AO2 T10291131
K6B0 130615Z AUTO 17008KT 10SM OVC100 M03/M13 A3049 RMK AO2 T10301131
K6B0 130556Z AUTO 16007KT 10SM OVC100 M03/M13 A3049 RMK AO2 T10301130 11030 21046
K6B0 130536Z AUTO 18005KT 10SM BKN100 M04/M13 A3050 RMK AO2 T10381127
K6B0 130518Z AUTO 16004KT 10SM CLR M04/M12 A3051 RMK AO2 T10421120
K6B0 130455Z AUTO 17006KT 10SM CLR M04/M12 A3051 RMK AO2 T10401125 410221111
K6B0 130436Z AUTO 17006KT 10SM CLR M04/M12 A3052 RMK AO2 T10401120
K6B0 130435Z AUTO 17007KT 10SM CLR M04/M12 A3052 RMK AO2 T10421119
K6B0 130415Z AUTO 17005KT 10SM CLR M04/M12 A3053 RMK AO2 T10371122
K6B0 130357Z AUTO 17006KT 10SM CLR M04/M12 A3054 RMK AO2 T10361122
K6B0 130339Z AUTO 17008KT 10SM SCT120 M04/M12 A3054 RMK AO2 T10361120
K6B0 130335Z AUTO 17007KT 10SM SCT120 M03/M12 A3054 RMK AO2 T10351120
K6B0 130316Z AUTO 17007G14KT 10SM OVC120 M03/M12 A3056 RMK AO2 T10351119
K6B0 130315Z AUTO 16006G14KT 10SM OVC120 M03/M12 A3056 RMK AO2 T10351119
K6B0 130255Z AUTO 15005KT 10SM BKN120 M04/M11 A3056 RMK AO2 T10401115
K6B0 130237Z AUTO 15003KT 10SM BKN120 M04/M11 A3057 RMK AO2 T10401114
K6B0 130219Z AUTO 15004KT 10SM BKN120 M04/M11 A3057 RMK AO2 T10411113
K6B0 130215Z AUTO 16003KT 10SM BKN120 M04/M11 A3058 RMK AO2 T10411114
K6B0 130156Z AUTO 15004KT 10SM BKN080 BKN120 M04/M11 A3059 RMK AO2 T10401112
K6B0 130155Z AUTO 15003KT 10SM BKN080 M04/M11 A3059 RMK AO2 T10401112
K6B0 130135Z AUTO 16003KT 10SM OVC080 M04/M11 A3060 RMK AO2 T10381110
K6B0 130117Z AUTO 18004KT 10SM OVC080 M04/M11 A3060 RMK AO2 T10371112
K6B0 130056Z AUTO 14004KT 10SM BKN070 M04/M11 A3060 RMK AO2 T10401113
K6B0 130055Z AUTO 00000KT 10SM BKN070 M04/M11 A3060 RMK AO2 T10401114
K6B0 130036Z AUTO 17005KT 10SM SCT070 M04/M11 A3060 RMK AO2 T10401112
K6B0 130035Z AUTO 17005KT 10SM SCT070 M04/M11 A3060 RMK AO2 T10401112
K6B0 130015Z AUTO 16006KT 10SM CLR M04/M11 A3060 RMK AO2 T10401112
K6B0 122357Z AUTO 17004KT 10SM CLR M04/M11 A3061 RMK AO2 T10401113
K6B0 122339Z AUTO 16007KT 10SM CLR M04/M11 A3061 RMK AO2 T10411115
K6B0 122335Z AUTO 16006KT 10SM CLR M04/M11 A3061 RMK AO2 T10421113
K6B0 122316Z AUTO 17004KT 10SM CLR M04/M11 A3062 RMK AO2 T10431115
K6B0 122315Z AUTO 16005KT 10SM CLR M04/M11 A3062 RMK AO2 T10431115
K6B0 122256Z AUTO 15003KT 10SM CLR M04/M12 A3063 RMK AO2 T10441117
K6B0 122236Z AUTO 15004KT 10SM CLR M04/M12 A3062 RMK AO2 T10421121
K6B0 122218Z AUTO 16003KT 10SM CLR M04/M12 A3062 RMK AO2 T10411120
K6B0 122156Z AUTO 00000KT 10SM CLR M04/M12 A3062 RMK AO2 T10401119
K6B0 122155Z AUTO 17004KT 10SM CLR M04/M12 A3062 RMK AO2 T10401119
K6B0 122135Z AUTO 19005KT 10SM CLR M04/M12 A3061 RMK AO2 T10391121
K6B0 122115Z AUTO 18005KT 10SM CLR M04/M12 A3061 RMK AO2 T10361125
K6B0 122058Z AUTO 16004KT 10SM CLR M04/M12 A3061 RMK AO2 T10371121
K6B0 122035Z AUTO 16003KT 10SM CLR M03/M12 A3061 RMK AO2 T10351122
K6B0 122016Z AUTO 19005KT 10SM CLR M03/M13 A3061 RMK AO2 T10301126
K6B0 122015Z AUTO 19004KT 10SM CLR M03/M13 A3061 RMK AO2 T10311128
K6B0 121956Z AUTO 18005KT 10SM CLR M03/M12 A3061 RMK AO2 T10281124
K6B0 121938Z AUTO 22005KT 10SM CLR M03/M12 A3061 RMK AO2 T10271124
K6B0 121919Z AUTO 19003KT 10SM SCT043 M03/M13 A3061 RMK AO2 T10281126
K6B0 121915Z AUTO 22004KT 10SM SCT043 M03/M12 A3061 RMK AO2 T10261125
K6B0 121855Z AUTO 00000KT 10SM SCT043 M03/M13 A3061 RMK AO2 T10261127
K6B0 121836Z AUTO 00000KT 10SM CLR M03/M13 A3062 RMK AO2 T10321129
K6B0 121816Z AUTO 00000KT 10SM CLR M03/M13 A3062 RMK AO2 T10301131
K6B0 121759Z AUTO 19003KT 10SM SCT047 M03/M13 A3063 RMK AO2 T10341128
K6B0 121736Z AUTO 20005KT 10SM SCT047 M03/M13 A3063 RMK AO2 T10271131
K6B0 121735Z AUTO 20004KT 10SM SCT047 M03/M13 A3063 RMK AO2 T10261131
K6B0 121716Z AUTO 00000KT 10SM SCT044 M04/M13 A3063 RMK AO2 T10391133
K6B0 121715Z AUTO 00000KT 10SM SCT044 M04/M13 A3063 RMK AO2 T10391134
K6B0 121655Z AUTO 00000KT 10SM SCT044 M04/M12 A3064 RMK AO2 T10371124
K6B0 121637Z AUTO 31003KT 10SM SCT040 M03/M13 A3065 RMK AO2 T10351126
K6B0 121619Z AUTO 01003KT 10SM CLR M04/M13 A3065 RMK AO2 T10401130
K6B0 121615Z AUTO 01003KT 10SM CLR M04/M13 A3065 RMK AO2 T10391129
K6B0 121556Z AUTO 00000KT 10SM SCT050 M04/M13 A3066 RMK AO2 T10381127
K6B0 121555Z AUTO 00000KT 10SM SCT050 M04/M13 A3066 RMK AO2 T10381126
K6B0 121536Z AUTO 08004KT 10SM SCT036 BKN050 M04/M12 A3066 RMK AO2 T10451125
K6B0 121516Z AUTO 00000KT 10SM SCT048 M05/M12 A3067 RMK AO2 T10461123
K6B0 121458Z AUTO 19005KT 10SM CLR M05/M12 A3066 RMK AO2 T10471117
K6B0 121436Z AUTO 00000KT 10SM CLR M05/M13 A3065 RMK AO2 T10501129
K6B0 121435Z AUTO 00000KT 10SM CLR M05/M13 A3065 RMK AO2 T10501128
K6B0 121416Z AUTO 00000KT 10SM CLR M05/M13 A3065 RMK AO2 T10551126
K6B0 121415Z AUTO 00000KT 10SM CLR M05/M12 A3065 RMK AO2 T10551125
K6B0 121355Z AUTO 00000KT 10SM SCT048 M06/M13 A3064 RMK AO2 T10581131
K6B0 121338Z AUTO 20003KT 10SM OVC048 M06/M12 A3064 RMK AO2 T10621121
K6B0 121315Z AUTO 00000KT 10SM BKN050 M08/M13 A3063 RMK AO2 T10821126
K6B0 121256Z AUTO 00000KT 10SM SCT050 M09/M13 A3062 RMK AO2 T10901130
K6B0 121255Z AUTO 00000KT 10SM SCT050 M09/M13 A3062 RMK AO2 T10911129
K6B0 121236Z AUTO 00000KT 10SM SCT050 M10/M13 A3060 RMK AO2 T11011132
K6B0 121216Z AUTO 00000KT 10SM BKN050 M10/M13 A3059 RMK AO2 T10991130
K6B0 121158Z AUTO 00000KT 10SM BKN050 M10/M13 A3059 RMK AO2 T10961133
K6B0 121136Z AUTO 00000KT 10SM OVC050 M09/M13 A3057 RMK AO2 T10951135
K6B0 121135Z AUTO 00000KT 10SM OVC050 M09/M13 A3057 RMK AO2 T10941135
K6B0 121116Z AUTO 00000KT 10SM OVC060 M09/M13 A3057 RMK AO2 T10871132
K6B0 121115Z AUTO 00000KT 10SM OVC060 M09/M13 A3057 RMK AO2 T10871133
K6B0 121055Z AUTO 00000KT 10SM BKN060 M10/M13 A3056 RMK AO2 T10971132
K6B0 121037Z AUTO 00000KT 10SM SCT060 M10/M13 A3055 RMK AO2 T11031134
K6B0 121019Z AUTO 00000KT 10SM CLR M10/M13 A3053 RMK AO2 T11021133
K6B0 121015Z AUTO 00000KT 10SM SCT060 M10/M13 A3053 RMK AO2 T11041135
K6B0 120956Z AUTO 00000KT 10SM SCT060 M11/M13 A3053 RMK AO2 T11061134
K6B0 120955Z AUTO 00000KT 10SM SCT060 M11/M13 A3053 RMK AO2 T11071135
K6B0 120936Z AUTO 00000KT 10SM CLR M11/M14 A3052 RMK AO2 T11101137
K6B0 120916Z AUTO 00000KT 10SM SCT055 M10/M13 A3051 RMK AO2 T11031135
K6B0 120858Z AUTO 00000KT 10SM SCT055 M10/M13 A3051 RMK AO2 T11041135
K6B0 120836Z AUTO 00000KT 10SM SCT065 M11/M14 A3050 RMK AO2 T11111141
K6B0 120835Z AUTO 00000KT 10SM SCT065 M11/M14 A3050 RMK AO2 T11101142
K6B0 120816Z AUTO 00000KT 10SM SCT065 M10/M14 A3050 RMK AO2 T11021138
K6B0 120815Z AUTO 00000KT 10SM SCT065 M10/M14 A3050 RMK AO2 T11021138
K6B0 120755Z AUTO 00000KT 10SM CLR M10/M14 A3049 RMK AO2 T11011138
K6B0 120737Z AUTO 00000KT 10SM SCT050 M10/M14 A3049 RMK AO2 T10971138
K6B0 120719Z AUTO 00000KT 10SM SCT050 M09/M14 A3049 RMK AO2 T10941136
K6B0 120715Z AUTO 00000KT 10SM SCT050 M09/M13 A3048 RMK AO2 T10931135
K6B0 120656Z AUTO 00000KT 10SM SCT045 SCT050 SCT065 M09/M13 A3047 RMK AO2 T10941135
K6B0 120655Z AUTO 00000KT 10SM SCT045 SCT050 SCT065 M09/M13 A3047 RMK AO2 T10951135
K6B0 120635Z AUTO 00000KT 10SM SCT045 BKN060 BKN065 M09/M14 A3046 RMK AO2 T10911140
K6B0 120616Z AUTO 00000KT 10SM SCT070 M09/M14 A3045 RMK AO2 T10901142
K6B0 120558Z AUTO 34003KT 10SM SCT045 SCT070 M09/M15 A3043 RMK AO2 T10861147
K6B0 120536Z AUTO 36005KT 10SM SCT065 M08/M15 A3043 RMK AO2 T10761154
K6B0 120535Z AUTO 36005KT 10SM SCT065 M08/M15 A3043 RMK AO2 T10761155
K6B0 120515Z AUTO 00000KT 10SM SCT065 M08/M15 A3042 RMK AO2 T10841150
K6B0 120455Z AUTO 00000KT 10SM CLR M07/M15 A3040 RMK AO2 T10751150 410101076
K6B0 120437Z AUTO 36005KT 10SM SCT047 SCT060 SCT070 M07/M14 A3038 RMK AO2 T10681142
K6B0 120419Z AUTO 33005KT 10SM SCT047 BKN060 BKN070 M07/M12 A3038 RMK AO2 T10691119
K6B0 120415Z AUTO 36004KT 10SM BKN047 BKN060 M07/M11 A3037 RMK AO2 T10671115
K6B0 120356Z AUTO 33004KT 10SM SCT043 BKN050 M05/M13 A3035 RMK AO2 T10551130
K6B0 120355Z AUTO 34003KT 10SM SCT045 BKN050 M05/M13 A3035 RMK AO2 T10551129
K6B0 120336Z AUTO 30004KT 10SM BKN046 BKN050 OVC070 M05/M11 A3033 RMK AO2 T10521110
K6B0 120316Z AUTO 00000KT 10SM SCT010 BKN050 OVC065 M06/M07 A3032 RMK AO2 T10591067
K6B0 120258Z AUTO 00000KT 10SM SCT010 BKN039 BKN048 M06/M07 A3030 RMK AO2 T10631073
K6B0 120236Z AUTO 00000KT 10SM SCT006 SCT039 BKN048 M05/M07 A3029 RMK AO2 T10551067
K6B0 120235Z AUTO 00000KT 10SM SCT004 SCT039 BKN048 M06/M07 A3029 RMK AO2 T10561068
K6B0 120216Z AUTO 33003KT 3/4SM -SN BKN004 OVC011 M05/M06 A3027 RMK AO2 VIS 1/4V5 T10461059
K6B0 120215Z AUTO 33004KT 1/2SM -SN OVC004 M05/M06 A3027 RMK AO2 T10461058
K6B0 120155Z AUTO 27012G18KT 220V280 4SM -SN SCT014 BKN046 OVC080 M02/M08 A3026 RMK AO2 T10251085